createdAt,value
2023-05-24T00:02:13.863Z,2.30
2023-05-24T00:04:41.661Z,1.95
2023-05-24T00:07:08.585Z,2.15
2023-05-24T00:09:35.502Z,2.05
2023-05-24T00:12:02.569Z,2.60
2023-05-24T00:14:29.356Z,2.20
2023-05-24T00:16:56.168Z,2.10
2023-05-24T00:19:23.104Z,3.00
2023-05-24T00:21:50.025Z,2.30
2023-05-24T00:24:19.625Z,2.80
2023-05-24T00:26:46.399Z,2.80
2023-05-24T00:29:13.186Z,2.08
2023-05-24T00:31:39.940Z,2.13
2023-05-24T00:34:06.999Z,2.50
2023-05-24T00:36:33.993Z,2.65
2023-05-24T00:39:00.825Z,2.55
2023-05-24T00:41:27.708Z,1.75
2023-05-24T00:43:54.540Z,2.35
2023-05-24T00:46:28.895Z,2.35
2023-05-24T00:48:56.893Z,2.45
2023-05-24T00:51:26.343Z,2.17
2023-05-24T00:53:53.667Z,2.30
2023-05-24T00:56:20.661Z,2.90
2023-05-24T00:58:48.423Z,2.83
2023-05-24T01:01:15.180Z,2.60
2023-05-24T01:03:42.181Z,2.97
2023-05-24T01:06:13.634Z,2.97
2023-05-24T01:08:40.540Z,2.25
2023-05-24T01:11:45.053Z,2.17
2023-05-24T01:14:43.840Z,2.60
2023-05-24T01:17:18.977Z,2.40
2023-05-24T01:20:06.889Z,2.90
2023-05-24T01:23:04.944Z,3.17
2023-05-24T01:26:00.759Z,2.80
2023-05-24T01:28:28.005Z,3.10
2023-05-24T01:30:55.910Z,3.20
2023-05-24T01:33:23.988Z,2.88
2023-05-24T01:35:50.750Z,2.25
2023-05-24T01:38:17.535Z,3.30
2023-05-24T01:40:47.055Z,3.72
2023-05-24T01:43:33.706Z,3.40
2023-05-24T01:46:32.406Z,2.60
2023-05-24T01:49:23.273Z,2.80
2023-05-24T01:52:00.269Z,3.90
2023-05-24T01:54:30.687Z,3.55
2023-05-24T01:56:58.756Z,3.05
2023-05-24T01:59:28.487Z,2.53
2023-05-24T02:01:55.474Z,2.60
2023-05-24T02:04:22.311Z,2.83
2023-05-24T02:06:49.095Z,3.35
2023-05-24T02:09:15.817Z,2.92
2023-05-24T02:11:42.588Z,2.55
2023-05-24T02:14:09.303Z,3.15
2023-05-24T02:16:42.455Z,2.92
2023-05-24T02:19:09.700Z,3.35
2023-05-24T02:21:36.449Z,3.08
2023-05-24T02:24:03.785Z,3.28
2023-05-24T02:26:30.662Z,3.47
2023-05-24T02:28:57.348Z,3.63
2023-05-24T02:31:25.800Z,3.05
2023-05-24T02:33:52.496Z,3.08
2023-05-24T02:36:19.222Z,3.40
2023-05-24T02:38:45.981Z,2.85
2023-05-24T02:41:17.820Z,2.42
2023-05-24T02:43:45.590Z,3.22
2023-05-24T02:46:12.840Z,3.75
2023-05-24T02:48:39.937Z,3.97
2023-05-24T02:51:07.035Z,3.63
2023-05-24T02:53:33.820Z,3.00
2023-05-24T02:56:00.548Z,3.58
2023-05-24T02:58:30.274Z,3.40
2023-05-24T03:00:57.469Z,3.20
2023-05-24T03:03:24.324Z,3.95
2023-05-24T03:05:51.497Z,3.60
2023-05-24T03:08:18.259Z,4.30
2023-05-24T03:10:44.999Z,3.90
2023-05-24T03:13:13.257Z,3.25
2023-05-24T03:15:40.010Z,3.50
2023-05-24T03:18:07.491Z,3.97
2023-05-24T03:20:35.485Z,3.10
2023-05-24T03:23:02.243Z,3.40
2023-05-24T03:25:29.520Z,3.53
2023-05-24T03:27:56.233Z,2.88
2023-05-24T03:30:23.130Z,3.53
2023-05-24T03:32:53.804Z,3.78
2023-05-24T03:35:20.720Z,3.70
2023-05-24T03:37:48.909Z,3.47
2023-05-24T03:40:16.477Z,3.13
2023-05-24T03:42:55.730Z,4.00
2023-05-24T03:45:39.136Z,3.38
2023-05-24T03:48:07.062Z,2.95
2023-05-24T03:50:34.381Z,3.45
2023-05-24T03:53:01.148Z,3.85
2023-05-24T03:55:27.870Z,3.38
2023-05-24T03:57:54.559Z,4.65
2023-05-24T04:00:21.655Z,3.17
2023-05-24T04:02:49.527Z,3.55
2023-05-24T04:05:16.365Z,4.03
2023-05-24T04:07:45.299Z,3.92
2023-05-24T04:10:12.689Z,4.05
2023-05-24T04:12:41.326Z,3.88
2023-05-24T04:15:08.770Z,3.47
2023-05-24T04:17:35.943Z,3.70
2023-05-24T04:20:03.631Z,3.70
2023-05-24T04:22:30.612Z,3.88
2023-05-24T04:24:58.027Z,3.78
2023-05-24T04:27:26.040Z,4.05
2023-05-24T04:29:54.328Z,3.60
2023-05-24T04:32:21.044Z,4.43
2023-05-24T04:34:47.810Z,2.92
2023-05-24T04:37:17.112Z,4.00
2023-05-24T04:39:46.017Z,3.35
2023-05-24T04:42:13.087Z,4.85
2023-05-24T04:44:42.971Z,3.10
2023-05-24T04:47:10.649Z,3.55
2023-05-24T04:49:37.761Z,4.65
2023-05-24T04:52:05.170Z,4.13
2023-05-24T04:54:32.736Z,3.53
2023-05-24T04:56:59.485Z,3.60
2023-05-24T04:59:26.187Z,3.55
2023-05-24T05:01:52.913Z,3.50
2023-05-24T05:04:19.620Z,4.18
2023-05-24T05:06:46.534Z,3.35
2023-05-24T05:09:14.715Z,3.63
2023-05-24T05:11:41.677Z,3.47
2023-05-24T05:14:11.610Z,3.00
2023-05-24T05:16:39.035Z,3.35
2023-05-24T05:19:05.887Z,3.75
2023-05-24T05:21:33.483Z,3.47
2023-05-24T05:24:01.200Z,3.58
2023-05-24T05:26:28.429Z,2.97
2023-05-24T05:28:55.827Z,3.95
2023-05-24T05:31:22.957Z,3.63
2023-05-24T05:33:49.723Z,3.38
2023-05-24T05:36:16.921Z,3.58
2023-05-24T05:38:43.637Z,3.47
2023-05-24T05:41:10.707Z,2.78
2023-05-24T05:43:39.173Z,3.30
2023-05-24T05:46:06.584Z,3.22
2023-05-24T05:48:33.374Z,3.05
2023-05-24T05:51:00.224Z,3.15
2023-05-24T05:53:26.977Z,3.20
2023-05-24T05:55:53.692Z,3.88
2023-05-24T05:58:20.482Z,2.92
2023-05-24T06:00:47.153Z,3.15
2023-05-24T06:03:14.032Z,3.03
2023-05-24T06:05:41.767Z,3.40
2023-05-24T06:08:08.474Z,2.92
2023-05-24T06:10:35.309Z,3.30
2023-05-24T06:13:03.330Z,3.00
2023-05-24T06:15:30.418Z,3.40
2023-05-24T06:17:57.324Z,4.13
2023-05-24T06:20:24.233Z,3.05
2023-05-24T06:22:51.038Z,3.78
2023-05-24T06:25:20.780Z,3.40
2023-05-24T06:27:47.584Z,3.00
2023-05-24T06:30:14.501Z,3.13
2023-05-24T06:32:41.635Z,2.85
2023-05-24T06:35:08.932Z,2.90
2023-05-24T06:37:38.476Z,3.20
2023-05-24T06:40:08.834Z,3.22
2023-05-24T06:42:36.837Z,2.53
2023-05-24T06:45:03.884Z,3.45
2023-05-24T06:47:30.836Z,2.65
2023-05-24T06:49:57.798Z,3.45
2023-05-24T06:52:24.618Z,3.15
2023-05-24T06:54:52.177Z,3.25
2023-05-24T06:57:18.903Z,2.97
2023-05-24T06:59:45.988Z,3.22
2023-05-24T07:02:12.777Z,3.15
2023-05-24T07:04:41.271Z,2.78
2023-05-24T07:07:08.969Z,3.38
2023-05-24T07:09:35.719Z,2.70
2023-05-24T07:12:02.641Z,2.97
2023-05-24T07:14:29.385Z,2.55
2023-05-24T07:16:57.488Z,3.13
2023-05-24T07:19:28.847Z,3.08
2023-05-24T07:21:58.744Z,3.30
2023-05-24T07:24:25.465Z,2.75
2023-05-24T07:26:53.652Z,3.33
2023-05-24T07:29:21.932Z,3.45
2023-05-24T07:31:48.847Z,2.95
2023-05-24T07:34:16.165Z,2.70
2023-05-24T07:36:42.876Z,2.85
2023-05-24T07:39:10.191Z,3.50
2023-05-24T07:41:37.161Z,2.60
2023-05-24T07:44:04.054Z,2.53
2023-05-24T07:46:30.795Z,2.55
2023-05-24T07:48:57.556Z,2.63
2023-05-24T07:51:24.257Z,3.17
2023-05-24T07:53:50.930Z,2.85
2023-05-24T07:56:17.651Z,3.17
2023-05-24T07:58:46.672Z,2.97
2023-05-24T08:01:14.129Z,3.50
2023-05-24T08:03:41.021Z,3.72
2023-05-24T08:06:08.068Z,3.40
2023-05-24T08:08:35.560Z,3.03
2023-05-24T08:11:02.299Z,3.00
2023-05-24T08:13:28.996Z,2.90
2023-05-24T08:15:55.867Z,3.35
2023-05-24T08:18:22.689Z,3.25
2023-05-24T08:20:49.531Z,3.15
2023-05-24T08:23:16.228Z,3.10
2023-05-24T08:25:43.077Z,3.38
2023-05-24T08:28:10.987Z,2.42
2023-05-24T08:30:38.280Z,2.97
2023-05-24T08:33:05.046Z,3.25
2023-05-24T08:35:31.750Z,2.83
2023-05-24T08:37:58.398Z,3.22
2023-05-24T08:40:25.375Z,3.13
2023-05-24T08:42:52.873Z,3.45
2023-05-24T08:45:22.147Z,3.25
2023-05-24T08:47:51.698Z,3.17
2023-05-24T08:50:19.273Z,2.85
2023-05-24T08:52:46.490Z,3.55
2023-05-24T08:55:14.462Z,2.80
2023-05-24T08:57:41.918Z,3.50
2023-05-24T09:00:13.754Z,3.15
2023-05-24T09:02:42.244Z,3.13
2023-05-24T09:05:16.306Z,2.80
2023-05-24T09:07:46.463Z,3.13
2023-05-24T09:10:13.374Z,3.00
2023-05-24T09:12:44.641Z,3.03
2023-05-24T09:15:11.999Z,2.97
2023-05-24T09:17:40.585Z,2.90
2023-05-24T09:20:09.097Z,3.05
2023-05-24T09:22:41.440Z,2.60
2023-05-24T09:25:10.884Z,3.25
2023-05-24T09:27:38.424Z,3.38
2023-05-24T09:30:10.083Z,3.15
2023-05-24T09:32:38.600Z,2.60
2023-05-24T09:35:09.381Z,2.75
2023-05-24T09:37:38.753Z,2.70
2023-05-24T09:40:07.236Z,2.60
2023-05-24T09:42:34.107Z,3.03
2023-05-24T09:45:09.411Z,2.45
2023-05-24T09:47:40.999Z,3.00
2023-05-24T09:50:19.735Z,3.20
2023-05-24T09:52:46.657Z,3.08
2023-05-24T09:55:18.127Z,3.15
2023-05-24T09:58:05.981Z,3.05
2023-05-24T10:00:41.242Z,2.97
2023-05-24T10:03:11.956Z,3.05
2023-05-24T10:05:45.121Z,3.17
2023-05-24T10:08:14.188Z,2.70
2023-05-24T10:10:42.998Z,3.35
2023-05-24T10:13:10.338Z,3.05
2023-05-24T10:15:37.121Z,3.13
2023-05-24T10:18:10.457Z,3.10
2023-05-24T10:20:38.211Z,3.15
2023-05-24T10:23:09.707Z,3.33
2023-05-24T10:25:41.041Z,3.65
2023-05-24T10:28:12.434Z,2.83
2023-05-24T10:31:01.849Z,2.95
2023-05-24T10:33:31.222Z,2.92
2023-05-24T10:35:58.649Z,3.35
2023-05-24T10:38:25.720Z,2.67
2023-05-24T10:40:52.829Z,3.25
2023-05-24T10:43:21.344Z,3.00
2023-05-24T10:45:51.690Z,2.80
2023-05-24T10:48:24.657Z,2.65
2023-05-24T10:50:51.877Z,2.60
2023-05-24T10:53:22.391Z,3.45
2023-05-24T10:55:55.740Z,2.40
2023-05-24T10:58:58.168Z,3.38
2023-05-24T11:01:32.162Z,2.83
2023-05-24T11:04:15.686Z,2.95
2023-05-24T11:06:49.551Z,2.65
2023-05-24T11:09:22.459Z,2.65
2023-05-24T11:11:54.552Z,3.00
2023-05-24T11:14:27.674Z,2.70
2023-05-24T11:16:55.100Z,3.00
2023-05-24T11:19:24.307Z,3.53
2023-05-24T11:21:53.406Z,2.38
2023-05-24T11:24:21.739Z,3.30
2023-05-24T11:26:50.292Z,3.00
2023-05-24T11:29:18.051Z,2.70
2023-05-24T11:31:57.686Z,2.85
2023-05-24T11:34:27.096Z,2.70
2023-05-24T11:36:55.187Z,2.72
2023-05-24T11:39:23.389Z,2.75
2023-05-24T11:41:51.275Z,2.85
2023-05-24T11:44:19.609Z,2.97
2023-05-24T11:46:46.820Z,2.75
2023-05-24T11:49:17.231Z,4.53
2023-05-24T11:51:44.393Z,3.00
2023-05-24T11:54:11.731Z,4.07
2023-05-24T11:56:38.634Z,3.88
2023-05-24T11:59:18.387Z,2.92
2023-05-24T12:01:45.113Z,2.97
2023-05-24T12:04:12.908Z,2.63
2023-05-24T12:06:42.015Z,2.72
2023-05-24T12:09:13.183Z,3.25
2023-05-24T12:11:42.134Z,2.85
2023-05-24T12:14:13.671Z,2.95
2023-05-24T12:16:42.659Z,2.92
2023-05-24T12:19:31.753Z,3.97
2023-05-24T12:22:01.020Z,3.13
2023-05-24T12:24:28.670Z,3.25
2023-05-24T12:27:03.621Z,3.05
2023-05-24T12:29:38.654Z,3.00
2023-05-24T12:32:06.461Z,3.17
2023-05-24T12:34:33.222Z,2.40
2023-05-24T12:37:00.454Z,3.03
2023-05-24T12:39:31.515Z,3.65
2023-05-24T12:41:59.588Z,2.80
2023-05-24T12:44:37.544Z,2.60
2023-05-24T12:47:06.702Z,3.40
2023-05-24T12:49:33.933Z,2.83
2023-05-24T12:52:03.892Z,2.67
2023-05-24T12:54:30.828Z,2.92
2023-05-24T12:57:00.205Z,2.83
2023-05-24T12:59:28.374Z,2.78
2023-05-24T13:01:55.511Z,3.00
2023-05-24T13:04:26.090Z,2.70
2023-05-24T13:06:52.860Z,2.60
2023-05-24T13:09:22.306Z,2.72
2023-05-24T13:11:49.488Z,2.45
2023-05-24T13:14:16.976Z,2.50
2023-05-24T13:16:44.206Z,2.53
2023-05-24T13:19:11.824Z,2.35
2023-05-24T13:21:39.096Z,2.58
2023-05-24T13:24:06.825Z,2.47
2023-05-24T13:26:37.446Z,2.47
2023-05-24T13:29:32.206Z,2.70
2023-05-24T13:31:55.440Z,2.75
2023-05-24T13:34:25.600Z,2.38
2023-05-24T13:36:54.162Z,2.33
2023-05-24T13:39:22.131Z,2.75
2023-05-24T13:41:49.017Z,2.50
2023-05-24T13:44:16.954Z,2.58
2023-05-24T13:46:44.058Z,2.25
2023-05-24T13:49:11.780Z,2.45
2023-05-24T13:51:39.416Z,2.50
2023-05-24T13:54:07.183Z,2.67
2023-05-24T13:56:34.480Z,2.85
2023-05-24T13:59:02.636Z,2.28
2023-05-24T14:01:30.244Z,1.95
2023-05-24T14:03:57.142Z,2.33
2023-05-24T14:06:24.117Z,2.45
2023-05-24T14:08:51.124Z,1.88
2023-05-24T14:11:17.838Z,2.40
2023-05-24T14:16:14.783Z,2.20
2023-05-24T14:18:41.885Z,2.08
2023-05-24T14:21:08.555Z,2.20
2023-05-24T14:23:35.355Z,1.95
2023-05-24T14:26:02.347Z,2.38
2023-05-24T14:28:29.093Z,2.28
2023-05-24T14:30:55.800Z,2.20
2023-05-24T14:33:23.339Z,2.33
2023-05-24T14:35:51.492Z,2.33
2023-05-24T14:38:18.302Z,3.17
2023-05-24T14:40:47.435Z,1.98
2023-05-24T14:43:14.602Z,2.15
2023-05-24T14:45:42.318Z,2.63
2023-05-24T14:48:13.236Z,2.47
2023-05-24T14:50:40.949Z,2.20
2023-05-24T14:53:14.142Z,2.45
2023-05-24T14:55:42.692Z,2.50
2023-05-24T14:58:11.776Z,2.10
2023-05-24T15:00:39.025Z,2.22
2023-05-24T15:03:07.893Z,2.20
2023-05-24T15:05:36.060Z,2.47
2023-05-24T15:08:02.849Z,2.42
2023-05-24T15:10:29.558Z,2.50
2023-05-24T15:12:56.254Z,2.38
2023-05-24T15:15:23.385Z,2.13
2023-05-24T15:17:50.173Z,2.10
2023-05-24T15:20:17.015Z,2.30
2023-05-24T15:22:43.919Z,1.70
2023-05-24T15:25:11.341Z,1.92
2023-05-24T15:27:38.600Z,2.17
2023-05-24T15:30:06.303Z,2.03
2023-05-24T15:32:33.001Z,2.00
2023-05-24T15:35:02.554Z,1.70
2023-05-24T15:37:29.319Z,2.00
2023-05-24T15:39:56.085Z,1.88
2023-05-24T15:42:24.600Z,1.83
2023-05-24T15:44:51.580Z,2.22
2023-05-24T15:47:21.257Z,2.13
2023-05-24T15:49:49.565Z,2.35
2023-05-24T15:52:16.376Z,2.22
2023-05-24T15:54:43.209Z,2.38
2023-05-24T15:57:09.951Z,1.83
2023-05-24T15:59:38.475Z,2.05
2023-05-24T16:02:06.484Z,2.50
2023-05-24T16:04:33.261Z,2.03
2023-05-24T16:07:00.347Z,2.28
2023-05-24T16:09:27.314Z,2.33
2023-05-24T16:11:54.137Z,2.58
2023-05-24T16:14:21.124Z,1.80
2023-05-24T16:16:47.908Z,2.00
2023-05-24T16:19:14.800Z,2.08
2023-05-24T16:21:41.885Z,2.05
2023-05-24T16:24:09.206Z,2.40
2023-05-24T16:26:36.167Z,2.13
2023-05-24T16:29:02.907Z,2.03
2023-05-24T16:31:31.104Z,2.35
2023-05-24T16:33:58.778Z,2.10
2023-05-24T16:36:26.864Z,2.58
2023-05-24T16:38:53.827Z,1.90
2023-05-24T16:41:20.535Z,2.42
2023-05-24T16:43:47.233Z,2.20
2023-05-24T16:46:14.009Z,2.47
2023-05-24T16:48:41.033Z,2.50
2023-05-24T16:51:07.856Z,2.00
2023-05-24T16:53:34.565Z,1.92
2023-05-24T16:56:01.316Z,1.70
2023-05-24T16:58:28.824Z,2.47
2023-05-24T17:00:55.749Z,2.10
2023-05-24T17:03:28.293Z,1.90
2023-05-24T17:05:56.780Z,2.30
2023-05-24T17:08:25.707Z,2.00
2023-05-24T17:10:56.053Z,2.05
2023-05-24T17:13:27.368Z,2.47
2023-05-24T17:15:55.284Z,2.30
2023-05-24T17:18:30.186Z,2.53
2023-05-24T17:20:57.985Z,2.45
2023-05-24T17:23:30.655Z,2.30
2023-05-24T17:25:57.950Z,1.80
2023-05-24T17:28:27.645Z,2.05
2023-05-24T17:30:59.611Z,2.03
2023-05-24T17:33:28.037Z,2.20
2023-05-24T17:35:56.543Z,2.45
2023-05-24T17:38:24.873Z,2.25
2023-05-24T17:40:59.497Z,2.10
2023-05-24T17:43:32.169Z,2.10
2023-05-24T17:46:06.053Z,2.10
2023-05-24T17:48:34.662Z,2.17
2023-05-24T17:51:03.736Z,2.15
2023-05-24T17:53:33.436Z,2.40
2023-05-24T17:56:00.814Z,1.90
2023-05-24T17:58:28.655Z,2.50
2023-05-24T18:00:55.449Z,1.83
2023-05-24T18:03:23.827Z,1.77
2023-05-24T18:05:50.617Z,2.30
2023-05-24T18:08:17.380Z,2.10
2023-05-24T18:10:44.012Z,2.30
2023-05-24T18:13:11.092Z,2.22
2023-05-24T18:15:37.863Z,1.95
2023-05-24T18:18:04.726Z,2.05
2023-05-24T18:20:31.650Z,1.90
2023-05-24T18:22:58.419Z,5.40
2023-05-24T18:25:25.674Z,3.30
2023-05-24T18:27:52.368Z,5.75
2023-05-24T18:30:19.263Z,4.40
2023-05-24T18:32:56.260Z,6.07
2023-05-24T18:35:32.172Z,5.15
2023-05-24T18:37:59.389Z,2.95
2023-05-24T18:40:26.416Z,2.50
2023-05-24T18:42:53.244Z,2.67
2023-05-24T18:45:19.964Z,1.88
2023-05-24T18:47:46.725Z,2.60
2023-05-24T18:50:13.563Z,2.22
2023-05-24T18:52:40.352Z,1.92
2023-05-24T18:55:10.603Z,1.80
2023-05-24T18:57:38.055Z,1.90
2023-05-24T19:00:07.065Z,1.75
2023-05-24T19:02:40.341Z,1.88
2023-05-24T19:05:08.139Z,1.80
2023-05-24T19:07:36.065Z,2.17
2023-05-24T19:10:03.911Z,2.72
2023-05-24T19:12:30.727Z,2.05
2023-05-24T19:14:57.475Z,1.50
2023-05-24T19:17:25.021Z,1.55
2023-05-24T19:19:52.096Z,1.90
2023-05-24T19:22:19.103Z,2.38
2023-05-24T19:24:46.004Z,2.63
2023-05-24T19:27:13.191Z,2.67
2023-05-24T19:29:40.125Z,2.58
2023-05-24T19:32:08.222Z,2.15
2023-05-24T19:34:37.033Z,2.05
2023-05-24T19:37:04.127Z,2.40
2023-05-24T19:39:30.970Z,1.67
2023-05-24T19:41:57.682Z,1.95
2023-05-24T19:44:24.430Z,2.40
2023-05-24T19:46:51.170Z,1.80
2023-05-24T19:49:17.912Z,1.67
2023-05-24T19:51:44.659Z,2.13
2023-05-24T19:54:12.593Z,1.88
2023-05-24T19:56:39.386Z,2.83
2023-05-24T19:59:06.073Z,2.10
2023-05-24T20:01:32.818Z,2.50
2023-05-24T20:03:59.621Z,2.05
2023-05-24T20:06:27.332Z,2.05
2023-05-24T20:08:55.622Z,2.15
2023-05-24T20:11:22.384Z,1.77
2023-05-24T20:13:49.247Z,2.03
2023-05-24T20:16:16.294Z,2.22
2023-05-24T20:18:43.085Z,2.05
2023-05-24T20:21:11.088Z,2.20
2023-05-24T20:23:37.832Z,2.10
2023-05-24T20:26:04.854Z,1.65
2023-05-24T20:28:32.093Z,2.08
2023-05-24T20:30:59.189Z,2.60
2023-05-24T20:33:25.978Z,2.20
2023-05-24T20:35:55.615Z,2.38
2023-05-24T20:38:23.506Z,2.00
2023-05-24T20:40:50.235Z,2.38
2023-05-24T20:43:16.953Z,2.20
2023-05-24T20:45:43.863Z,2.05
2023-05-24T20:48:10.934Z,2.55
2023-05-24T20:50:37.812Z,1.80
2023-05-24T20:53:04.520Z,2.40
2023-05-24T20:55:31.640Z,2.38
2023-05-24T20:57:58.397Z,2.10
2023-05-24T21:00:25.433Z,2.05
2023-05-24T21:02:52.134Z,1.95
2023-05-24T21:05:18.928Z,2.22
2023-05-24T21:07:45.946Z,2.30
2023-05-24T21:10:18.532Z,2.22
2023-05-24T21:12:47.869Z,2.22
2023-05-24T21:15:14.709Z,2.38
2023-05-24T21:17:41.456Z,2.47
2023-05-24T21:20:08.856Z,2.33
2023-05-24T21:22:35.765Z,2.20
2023-05-24T21:25:02.446Z,2.30
2023-05-24T21:27:29.207Z,2.03
2023-05-24T21:29:56.115Z,2.50
2023-05-24T21:32:22.918Z,2.40
2023-05-24T21:34:49.872Z,2.63
2023-05-24T21:37:17.428Z,2.70
2023-05-24T21:39:44.509Z,1.85
2023-05-24T21:42:11.318Z,2.17
2023-05-24T21:44:38.055Z,2.22
2023-05-24T21:47:05.259Z,2.35
2023-05-24T21:49:32.027Z,2.40
2023-05-24T21:51:58.846Z,2.00
2023-05-24T21:54:25.528Z,1.95
2023-05-24T21:56:52.273Z,2.22
2023-05-24T21:59:19.021Z,2.08
2023-05-24T22:01:45.883Z,2.17
2023-05-24T22:04:12.969Z,2.40
2023-05-24T22:06:41.563Z,2.67
2023-05-24T22:09:09.360Z,2.30
2023-05-24T22:11:36.160Z,1.90
2023-05-24T22:14:02.977Z,1.98
2023-05-24T22:16:29.724Z,2.33
2023-05-24T22:18:56.502Z,2.17
2023-05-24T22:21:23.247Z,2.50
2023-05-24T22:23:51.796Z,2.88
2023-05-24T22:26:18.530Z,2.35
2023-05-24T22:28:53.373Z,2.10
2023-05-24T22:31:20.217Z,1.85
2023-05-24T22:33:48.910Z,2.50
2023-05-24T22:36:16.055Z,2.72
2023-05-24T22:38:43.879Z,1.70
2023-05-24T22:41:10.599Z,2.70
2023-05-24T22:43:37.353Z,2.55
2023-05-24T22:46:05.035Z,2.50
2023-05-24T22:48:33.786Z,2.33
2023-05-24T22:51:00.671Z,2.78
2023-05-24T22:53:27.438Z,2.92
2023-05-24T22:55:54.152Z,2.50
2023-05-24T22:58:24.370Z,2.88
2023-05-24T23:00:51.789Z,2.70
2023-05-24T23:03:18.688Z,2.80
2023-05-24T23:05:45.692Z,2.50
2023-05-24T23:08:15.337Z,2.50
2023-05-24T23:10:45.471Z,2.60
2023-05-24T23:13:18.715Z,1.95
2023-05-24T23:15:46.914Z,2.30
2023-05-24T23:18:16.207Z,2.83
2023-05-24T23:20:44.279Z,2.85
2023-05-24T23:23:11.189Z,2.55
2023-05-24T23:25:37.961Z,2.38
2023-05-24T23:28:05.081Z,2.70
2023-05-24T23:30:31.992Z,2.53
2023-05-24T23:32:59.483Z,2.70
2023-05-24T23:35:26.497Z,2.40
2023-05-24T23:37:53.733Z,2.95
2023-05-24T23:40:20.781Z,3.05
2023-05-24T23:42:49.071Z,2.50
2023-05-24T23:45:16.075Z,2.55
2023-05-24T23:47:42.835Z,3.17
2023-05-24T23:50:10.338Z,2.83
2023-05-24T23:52:37.211Z,2.80
2023-05-24T23:55:04.354Z,2.83
2023-05-24T23:57:31.103Z,2.83
2023-05-24T23:59:57.980Z,2.70
